Terminal Aerodrome Forecast
Issued by NWS Glasgow, MT

Home | Current Version | Previous Version | Text Only | Print | Product List | Glossary On
Versions: 1 2 3 4 5 6 7 8 9 10 11 12 13
000
FTUS45 KGGW 012300
TAFGGW
TAF
KGGW 012320Z 0200/0224 28010KT P6SM VCSH BKN080
     FM020300 VRB05KT P6SM SCT080
     FM021800 27010KT P6SM SCT140=

USA.gov is the U.S. government's official web portal to all federal, state and local government web resources and services.